createdAt,value
2023-05-17T00:02:14.782Z,6.25
2023-05-17T00:04:42.352Z,3.92
2023-05-17T00:07:09.943Z,5.03
2023-05-17T00:09:37.804Z,3.72
2023-05-17T00:12:05.644Z,4.85
2023-05-17T00:14:33.229Z,3.97
2023-05-17T00:17:00.755Z,4.50
2023-05-17T00:19:28.371Z,6.57
2023-05-17T00:21:56.005Z,3.28
2023-05-17T00:24:23.501Z,4.05
2023-05-17T00:26:51.146Z,3.47
2023-05-17T00:29:18.706Z,3.70
2023-05-17T00:31:46.251Z,4.28
2023-05-17T00:34:13.816Z,4.13
2023-05-17T00:36:41.359Z,4.53
2023-05-17T00:39:08.906Z,5.18
2023-05-17T00:41:36.576Z,4.07
2023-05-17T00:44:04.137Z,4.38
2023-05-17T00:46:33.781Z,4.47
2023-05-17T00:49:01.327Z,6.05
2023-05-17T00:51:29.096Z,4.63
2023-05-17T00:53:56.735Z,4.75
2023-05-17T00:56:25.132Z,3.67
2023-05-17T00:58:53.324Z,4.05
2023-05-17T01:01:21.255Z,4.75
2023-05-17T01:03:49.600Z,4.45
2023-05-17T01:06:17.401Z,4.57
2023-05-17T01:08:45.603Z,4.90
2023-05-17T01:11:33.067Z,3.60
2023-05-17T01:14:19.364Z,5.88
2023-05-17T01:17:02.199Z,3.78
2023-05-17T01:19:58.683Z,3.30
2023-05-17T01:22:46.351Z,3.92
2023-05-17T01:25:50.833Z,3.17
2023-05-17T01:28:19.190Z,4.47
2023-05-17T01:30:48.370Z,3.17
2023-05-17T01:33:16.355Z,5.00
2023-05-17T01:35:44.054Z,3.20
2023-05-17T01:38:11.702Z,4.72
2023-05-17T01:40:47.081Z,4.50
2023-05-17T01:43:59.317Z,4.38
2023-05-17T01:46:34.166Z,4.88
2023-05-17T01:49:12.141Z,6.50
2023-05-17T01:51:49.652Z,4.47
2023-05-17T01:54:23.205Z,4.25
2023-05-17T01:56:58.959Z,4.57
2023-05-17T01:59:27.876Z,4.03
2023-05-17T02:01:58.354Z,3.75
2023-05-17T02:04:26.019Z,2.83
2023-05-17T02:06:53.594Z,3.75
2023-05-17T02:09:21.220Z,4.70
2023-05-17T02:11:48.760Z,4.30
2023-05-17T02:14:16.581Z,5.35
2023-05-17T02:16:44.147Z,4.30
2023-05-17T02:19:13.186Z,4.03
2023-05-17T02:21:40.732Z,3.75
2023-05-17T02:24:08.355Z,5.10
2023-05-17T02:26:36.429Z,4.93
2023-05-17T02:29:04.012Z,4.57
2023-05-17T02:31:31.516Z,4.45
2023-05-17T02:33:59.122Z,4.80
2023-05-17T02:36:26.731Z,4.50
2023-05-17T02:38:54.271Z,4.10
2023-05-17T02:41:21.809Z,4.97
2023-05-17T02:43:49.515Z,5.07
2023-05-17T02:46:17.187Z,6.50
2023-05-17T02:48:44.742Z,6.15
2023-05-17T02:51:12.250Z,4.50
2023-05-17T02:53:39.817Z,4.78
2023-05-17T02:56:08.185Z,6.10
2023-05-17T02:58:35.698Z,4.05
2023-05-17T03:01:03.265Z,5.53
2023-05-17T03:03:31.394Z,5.75
2023-05-17T03:06:04.728Z,4.07
2023-05-17T03:08:32.336Z,4.70
2023-05-17T03:10:59.855Z,4.63
2023-05-17T03:13:27.352Z,4.97
2023-05-17T03:15:54.853Z,4.38
2023-05-17T03:18:22.565Z,3.92
2023-05-17T03:20:52.788Z,5.60
2023-05-17T03:23:21.484Z,4.97
2023-05-17T03:25:49.017Z,5.43
2023-05-17T03:28:16.502Z,4.35
2023-05-17T03:30:44.168Z,3.75
2023-05-17T03:33:11.894Z,4.65
2023-05-17T03:35:39.488Z,5.90
2023-05-17T03:38:06.975Z,3.40
2023-05-17T03:40:34.495Z,3.10
2023-05-17T03:43:02.136Z,3.00
2023-05-17T03:45:29.854Z,3.25
2023-05-17T03:47:57.597Z,3.42
2023-05-17T03:50:25.186Z,3.13
2023-05-17T03:52:52.877Z,2.38
2023-05-17T03:55:20.509Z,3.22
2023-05-17T03:57:48.003Z,3.65
2023-05-17T04:00:21.252Z,2.25
2023-05-17T04:02:49.686Z,2.92
2023-05-17T04:05:17.370Z,3.95
2023-05-17T04:07:44.918Z,2.75
2023-05-17T04:10:12.688Z,2.40
2023-05-17T04:12:40.268Z,5.47
2023-05-17T04:15:08.538Z,5.45
2023-05-17T04:17:36.333Z,3.60
2023-05-17T04:20:06.556Z,1.80
2023-05-17T04:22:34.869Z,2.08
2023-05-17T04:25:02.468Z,2.72
2023-05-17T04:27:30.183Z,2.08
2023-05-17T04:29:58.049Z,2.45
2023-05-17T04:32:25.955Z,3.25
2023-05-17T04:34:53.542Z,1.92
2023-05-17T04:37:21.141Z,1.95
2023-05-17T04:39:48.895Z,2.38
2023-05-17T04:42:16.456Z,3.33
2023-05-17T04:44:44.041Z,1.98
2023-05-17T04:47:11.643Z,3.05
2023-05-17T04:49:39.191Z,3.55
2023-05-17T04:52:07.052Z,1.90
2023-05-17T04:54:34.605Z,1.80
2023-05-17T04:57:02.156Z,1.50
2023-05-17T04:59:29.752Z,2.90
2023-05-17T05:01:57.494Z,3.28
2023-05-17T05:04:25.588Z,3.50
2023-05-17T05:06:53.176Z,3.45
2023-05-17T05:09:20.700Z,2.47
2023-05-17T05:11:48.207Z,2.33
2023-05-17T05:14:15.736Z,2.50
2023-05-17T05:16:43.271Z,1.60
2023-05-17T05:19:11.155Z,2.30
2023-05-17T05:21:38.902Z,2.08
2023-05-17T05:24:06.720Z,2.30
2023-05-17T05:26:34.289Z,2.63
2023-05-17T05:29:01.856Z,2.47
2023-05-17T05:31:30.126Z,2.42
2023-05-17T05:33:57.716Z,2.22
2023-05-17T05:36:25.337Z,2.50
2023-05-17T05:38:54.381Z,1.27
2023-05-17T05:41:21.947Z,1.92
2023-05-17T05:43:49.543Z,3.00
2023-05-17T05:46:17.122Z,2.30
2023-05-17T05:48:44.923Z,2.70
2023-05-17T05:51:12.697Z,1.95
2023-05-17T05:53:40.229Z,2.88
2023-05-17T05:56:09.000Z,1.60
2023-05-17T05:58:36.655Z,2.30
2023-05-17T06:01:06.321Z,2.45
2023-05-17T06:03:34.220Z,1.67
2023-05-17T06:06:01.943Z,2.30
2023-05-17T06:08:29.595Z,1.73
2023-05-17T06:10:57.182Z,1.40
2023-05-17T06:13:24.796Z,2.38
2023-05-17T06:15:52.381Z,1.60
2023-05-17T06:18:20.015Z,2.15
2023-05-17T06:20:47.744Z,2.22
2023-05-17T06:23:19.884Z,1.60
2023-05-17T06:25:47.445Z,1.38
2023-05-17T06:28:14.997Z,1.63
2023-05-17T06:30:42.621Z,2.55
2023-05-17T06:33:10.339Z,1.83
2023-05-17T06:35:54.283Z,1.10
2023-05-17T06:38:24.091Z,1.30
2023-05-17T06:40:55.969Z,2.22
2023-05-17T06:43:23.921Z,1.80
2023-05-17T06:45:51.906Z,1.30
2023-05-17T06:48:19.577Z,1.00
2023-05-17T06:50:47.307Z,1.45
2023-05-17T06:53:15.065Z,0.93
2023-05-17T06:55:43.295Z,2.03
2023-05-17T06:58:11.032Z,1.23
2023-05-17T07:00:39.823Z,2.10
2023-05-17T07:03:07.589Z,1.60
2023-05-17T07:05:36.210Z,1.02
2023-05-17T07:08:04.014Z,1.10
2023-05-17T07:10:31.674Z,1.40
2023-05-17T07:13:00.509Z,1.63
2023-05-17T07:15:28.489Z,1.55
2023-05-17T07:17:56.381Z,1.13
2023-05-17T07:20:24.126Z,1.40
2023-05-17T07:22:51.791Z,0.93
2023-05-17T07:25:21.480Z,1.85
2023-05-17T07:27:49.036Z,1.35
2023-05-17T07:30:16.748Z,1.15
2023-05-17T07:32:44.366Z,0.57
2023-05-17T07:35:11.976Z,0.95
2023-05-17T07:37:39.468Z,0.95
2023-05-17T07:40:08.029Z,1.00
2023-05-17T07:42:35.654Z,1.02
2023-05-17T07:45:03.408Z,1.50
2023-05-17T07:47:31.304Z,0.70
2023-05-17T07:49:58.996Z,1.00
2023-05-17T07:52:26.510Z,1.13
2023-05-17T07:54:54.059Z,0.88
2023-05-17T07:57:21.628Z,0.85
2023-05-17T07:59:49.152Z,0.90
2023-05-17T08:02:16.726Z,0.70
2023-05-17T08:04:44.372Z,0.90
2023-05-17T08:07:11.926Z,0.85
2023-05-17T08:09:40.297Z,0.70
2023-05-17T08:12:07.862Z,0.77
2023-05-17T08:14:36.043Z,0.80
2023-05-17T08:17:05.134Z,0.80
2023-05-17T08:19:32.890Z,1.70
2023-05-17T08:22:01.388Z,0.60
2023-05-17T08:24:29.124Z,0.70
2023-05-17T08:26:57.179Z,1.17
2023-05-17T08:29:25.146Z,0.70
2023-05-17T08:31:54.264Z,1.30
2023-05-17T08:34:22.480Z,0.60
2023-05-17T08:36:50.236Z,1.10
2023-05-17T08:39:17.849Z,1.10
2023-05-17T08:41:50.121Z,0.75
2023-05-17T08:46:51.814Z,0.80
2023-05-17T08:49:23.540Z,1.38
2023-05-17T08:51:54.422Z,0.70
2023-05-17T08:54:22.759Z,0.50
2023-05-17T08:56:55.570Z,0.70
2023-05-17T08:59:23.900Z,0.88
2023-05-17T09:01:54.380Z,0.70
2023-05-17T09:04:22.590Z,0.80
2023-05-17T09:06:51.711Z,0.47
2023-05-17T09:09:19.916Z,0.85
2023-05-17T09:11:47.542Z,0.80
2023-05-17T09:14:17.308Z,0.68
2023-05-17T09:16:45.039Z,0.70
2023-05-17T09:19:18.038Z,0.50
2023-05-17T09:21:48.822Z,0.50
2023-05-17T09:24:21.239Z,0.65
2023-05-17T09:26:49.622Z,0.80
2023-05-17T09:29:17.923Z,0.63
2023-05-17T09:31:46.224Z,0.70
2023-05-17T09:34:13.750Z,0.55
2023-05-17T09:36:44.533Z,0.82
2023-05-17T09:39:14.403Z,1.60
2023-05-17T09:41:46.359Z,0.60
2023-05-17T09:44:15.243Z,0.85
2023-05-17T09:46:47.991Z,2.00
2023-05-17T09:49:16.914Z,0.50
2023-05-17T09:51:49.462Z,1.60
2023-05-17T09:54:17.719Z,0.50
2023-05-17T09:56:45.348Z,0.82
2023-05-17T09:59:15.194Z,0.50
2023-05-17T10:01:45.125Z,0.60
2023-05-17T10:04:14.642Z,0.40
2023-05-17T10:06:50.799Z,0.88
2023-05-17T10:09:23.185Z,0.45
2023-05-17T10:11:53.986Z,0.43
2023-05-17T10:14:33.747Z,0.57
2023-05-17T10:17:03.228Z,0.47
2023-05-17T10:19:31.882Z,0.45
2023-05-17T10:22:11.055Z,0.63
2023-05-17T10:24:48.895Z,0.60
2023-05-17T10:27:17.271Z,0.47
2023-05-17T10:29:47.629Z,0.60
2023-05-17T10:32:17.433Z,0.60
2023-05-17T10:34:47.658Z,1.52
2023-05-17T10:37:23.317Z,0.60
2023-05-17T10:39:52.257Z,0.60
2023-05-17T10:42:21.010Z,0.40
2023-05-17T10:44:49.568Z,0.60
2023-05-17T10:47:17.306Z,0.65
2023-05-17T10:49:47.976Z,0.57
2023-05-17T10:52:23.535Z,0.40
2023-05-17T10:54:51.338Z,0.60
2023-05-17T10:57:39.087Z,0.50
2023-05-17T11:00:21.694Z,0.60
2023-05-17T11:02:50.798Z,0.88
2023-05-17T11:05:25.255Z,0.50
2023-05-17T11:07:52.862Z,0.65
2023-05-17T11:10:20.499Z,0.65
2023-05-17T11:12:54.246Z,0.80
2023-05-17T11:15:26.479Z,0.63
2023-05-17T11:17:56.310Z,0.60
2023-05-17T11:20:27.411Z,1.00
2023-05-17T11:23:00.100Z,0.52
2023-05-17T11:28:18.854Z,0.68
2023-05-17T11:30:51.688Z,0.77
2023-05-17T11:33:33.006Z,0.90
2023-05-17T11:36:06.392Z,0.88
2023-05-17T11:38:34.425Z,0.60
2023-05-17T11:43:50.495Z,0.80
2023-05-17T11:46:24.741Z,0.65
2023-05-17T11:48:54.125Z,0.70
2023-05-17T11:51:24.999Z,0.88
2023-05-17T11:53:56.061Z,1.20
2023-05-17T11:56:39.424Z,0.85
2023-05-17T11:59:10.669Z,0.90
2023-05-17T12:01:48.046Z,0.63
2023-05-17T12:04:23.936Z,0.60
2023-05-17T12:06:51.724Z,1.17
2023-05-17T12:09:19.402Z,0.77
2023-05-17T12:11:47.889Z,0.70
2023-05-17T12:14:21.789Z,0.82
2023-05-17T12:16:53.193Z,0.70
2023-05-17T12:19:26.113Z,0.73
2023-05-17T12:21:53.838Z,0.90
2023-05-17T12:24:21.484Z,0.77
2023-05-17T12:26:49.731Z,1.23
2023-05-17T12:29:22.791Z,1.70
2023-05-17T12:31:53.792Z,0.80
2023-05-17T12:34:21.789Z,1.48
2023-05-17T12:36:50.571Z,0.70
2023-05-17T12:39:23.476Z,0.60
2023-05-17T12:41:52.122Z,0.90
2023-05-17T12:44:21.013Z,1.02
2023-05-17T12:46:53.790Z,0.68
2023-05-17T12:49:22.524Z,1.38
2023-05-17T12:51:50.691Z,1.33
2023-05-17T12:54:29.064Z,0.77
2023-05-17T12:56:57.274Z,0.98
2023-05-17T12:59:26.351Z,1.48
2023-05-17T13:01:59.167Z,1.02
2023-05-17T13:04:32.984Z,1.40
2023-05-17T13:07:02.938Z,0.68
2023-05-17T13:09:32.392Z,1.13
2023-05-17T13:12:02.103Z,0.88
2023-05-17T13:14:46.245Z,1.05
2023-05-17T13:17:47.460Z,1.33
2023-05-17T13:20:15.212Z,1.02
2023-05-17T13:22:49.758Z,0.95
2023-05-17T13:25:17.378Z,1.20
2023-05-17T13:27:48.879Z,1.00
2023-05-17T13:30:17.408Z,0.70
2023-05-17T13:32:47.350Z,1.25
2023-05-17T13:35:15.279Z,0.70
2023-05-17T13:37:42.948Z,0.75
2023-05-17T13:40:11.032Z,0.93
2023-05-17T13:42:38.599Z,0.80
2023-05-17T13:45:09.057Z,2.10
2023-05-17T13:47:37.081Z,1.17
2023-05-17T13:50:04.868Z,1.00
2023-05-17T13:52:32.454Z,1.00
2023-05-17T13:55:00.060Z,0.63
2023-05-17T13:57:27.623Z,0.77
2023-05-17T13:59:55.206Z,1.70
2023-05-17T14:02:22.864Z,1.25
2023-05-17T14:04:50.706Z,1.80
2023-05-17T14:07:18.262Z,0.93
2023-05-17T14:09:46.743Z,0.80
2023-05-17T14:12:14.327Z,0.90
2023-05-17T14:14:41.870Z,0.90
2023-05-17T14:17:09.373Z,0.90
2023-05-17T14:19:37.100Z,1.20
2023-05-17T14:22:04.957Z,1.55
2023-05-17T14:24:34.020Z,1.33
2023-05-17T14:27:03.260Z,0.85
2023-05-17T14:29:32.187Z,1.02
2023-05-17T14:31:59.809Z,0.88
2023-05-17T14:34:27.614Z,1.23
2023-05-17T14:36:55.260Z,1.08
2023-05-17T14:39:22.752Z,2.35
2023-05-17T14:41:50.296Z,0.98
2023-05-17T14:44:17.819Z,1.10
2023-05-17T14:46:45.392Z,1.38
2023-05-17T14:49:13.853Z,0.90
2023-05-17T14:51:41.671Z,1.05
2023-05-17T14:54:09.973Z,1.20
2023-05-17T14:56:38.219Z,1.92
2023-05-17T14:59:05.826Z,1.33
2023-05-17T15:01:33.418Z,1.00
2023-05-17T15:04:01.148Z,1.13
2023-05-17T15:06:28.834Z,1.35
2023-05-17T15:08:56.403Z,1.58
2023-05-17T15:11:23.919Z,0.85
2023-05-17T15:13:51.498Z,0.93
2023-05-17T15:16:19.339Z,0.70
2023-05-17T15:18:46.974Z,1.00
2023-05-17T15:21:14.812Z,0.85
2023-05-17T15:23:42.402Z,1.15
2023-05-17T15:26:10.156Z,1.00
2023-05-17T15:28:37.713Z,1.08
2023-05-17T15:31:08.228Z,1.15
2023-05-17T15:33:36.400Z,1.25
2023-05-17T15:36:04.018Z,0.90
2023-05-17T15:38:31.570Z,2.47
2023-05-17T15:41:04.980Z,0.88
2023-05-17T15:43:34.298Z,1.15
2023-05-17T15:46:02.110Z,2.03
2023-05-17T15:48:29.958Z,1.58
2023-05-17T15:50:57.807Z,2.08
2023-05-17T15:53:26.513Z,1.00
2023-05-17T15:55:54.134Z,1.10
2023-05-17T15:58:25.434Z,1.05
2023-05-17T16:00:53.191Z,0.87
2023-05-17T16:03:21.058Z,1.38
2023-05-17T16:05:48.796Z,1.80
2023-05-17T16:08:16.538Z,1.05
2023-05-17T16:10:44.272Z,0.88
2023-05-17T16:13:11.791Z,1.83
2023-05-17T16:15:39.368Z,0.98
2023-05-17T16:18:07.160Z,2.28
2023-05-17T16:20:34.851Z,0.90
2023-05-17T16:23:02.771Z,2.20
2023-05-17T16:25:30.589Z,1.75
2023-05-17T16:27:58.521Z,1.10
2023-05-17T16:30:26.123Z,1.83
2023-05-17T16:32:54.221Z,1.00
2023-05-17T16:35:22.554Z,1.50
2023-05-17T16:37:50.824Z,1.58
2023-05-17T16:40:18.601Z,1.35
2023-05-17T16:42:46.867Z,1.08
2023-05-17T16:45:14.865Z,0.90
2023-05-17T16:47:42.720Z,1.00
2023-05-17T16:50:11.321Z,1.00
2023-05-17T16:52:38.876Z,1.10
2023-05-17T16:55:06.842Z,1.02
2023-05-17T16:57:34.360Z,0.98
2023-05-17T17:00:02.125Z,1.50
2023-05-17T17:02:29.903Z,1.30
2023-05-17T17:04:58.473Z,1.58
2023-05-17T17:07:26.171Z,1.20
2023-05-17T17:09:53.768Z,1.10
2023-05-17T17:12:25.954Z,1.88
2023-05-17T17:14:54.813Z,0.90
2023-05-17T17:17:22.648Z,1.17
2023-05-17T17:19:50.229Z,1.35
2023-05-17T17:22:18.086Z,1.20
2023-05-17T17:24:45.680Z,1.45
2023-05-17T17:27:13.223Z,0.80
2023-05-17T17:29:40.784Z,0.95
2023-05-17T17:32:09.028Z,1.55
2023-05-17T17:34:36.600Z,1.00
2023-05-17T17:37:04.338Z,1.10
2023-05-17T17:39:31.896Z,1.50
2023-05-17T17:41:59.455Z,1.08
2023-05-17T17:44:26.946Z,1.02
2023-05-17T17:46:54.540Z,1.17
2023-05-17T17:49:22.167Z,1.92
2023-05-17T17:51:49.784Z,1.80
2023-05-17T17:54:17.334Z,0.80
2023-05-17T17:56:45.341Z,0.90
2023-05-17T17:59:13.292Z,0.90
2023-05-17T18:01:40.896Z,1.23
2023-05-17T18:04:09.473Z,1.15
2023-05-17T18:06:37.028Z,3.40
2023-05-17T18:09:04.725Z,0.93
2023-05-17T18:11:32.284Z,1.30
2023-05-17T18:14:00.049Z,1.20
2023-05-17T18:16:27.706Z,1.92
2023-05-17T18:18:55.408Z,0.85
2023-05-17T18:21:23.011Z,1.13
2023-05-17T18:23:50.508Z,1.25
2023-05-17T18:26:18.159Z,1.10
2023-05-17T18:28:45.785Z,1.10
2023-05-17T18:31:14.909Z,1.08
2023-05-17T18:33:42.482Z,1.55
2023-05-17T18:36:10.179Z,1.08
2023-05-17T18:38:37.746Z,1.35
2023-05-17T18:41:05.321Z,1.00
2023-05-17T18:43:32.912Z,1.58
2023-05-17T18:46:00.616Z,0.90
2023-05-17T18:48:28.527Z,0.90
2023-05-17T18:50:57.440Z,2.08
2023-05-17T18:53:25.192Z,0.60
2023-05-17T18:55:52.794Z,0.90
2023-05-17T18:58:20.588Z,1.02
2023-05-17T19:00:48.592Z,0.80
2023-05-17T19:03:16.309Z,1.30
2023-05-17T19:05:43.845Z,1.00
2023-05-17T19:08:11.365Z,0.90
2023-05-17T19:10:38.958Z,0.93
2023-05-17T19:13:07.370Z,1.52
2023-05-17T19:15:35.068Z,2.65
2023-05-17T19:18:02.679Z,1.08
2023-05-17T19:20:30.371Z,1.30
2023-05-17T19:22:58.084Z,2.25
2023-05-17T19:25:25.690Z,0.90
2023-05-17T19:27:53.287Z,1.33
2023-05-17T19:30:20.975Z,1.02
2023-05-17T19:32:48.552Z,1.10
2023-05-17T19:35:16.310Z,0.95
2023-05-17T19:37:43.947Z,1.00
2023-05-17T19:40:12.227Z,0.90
2023-05-17T19:42:40.008Z,0.77
2023-05-17T19:45:10.552Z,0.75
2023-05-17T19:47:38.318Z,1.63
2023-05-17T19:50:06.158Z,1.00
2023-05-17T19:52:33.825Z,1.00
2023-05-17T19:55:01.482Z,0.98
2023-05-17T19:57:29.175Z,0.70
2023-05-17T19:59:56.708Z,0.90
2023-05-17T20:02:24.520Z,1.35
2023-05-17T20:04:52.115Z,1.20
2023-05-17T20:07:25.663Z,1.08
2023-05-17T20:09:54.232Z,1.48
2023-05-17T20:12:24.333Z,1.20
2023-05-17T20:14:52.927Z,1.20
2023-05-17T20:17:21.412Z,2.25
2023-05-17T20:19:49.119Z,1.05
2023-05-17T20:22:16.743Z,0.80
2023-05-17T20:24:44.687Z,1.40
2023-05-17T20:27:12.996Z,0.90
2023-05-17T20:29:41.059Z,0.88
2023-05-17T20:32:09.214Z,0.90
2023-05-17T20:34:37.020Z,0.95
2023-05-17T20:37:04.715Z,0.90
2023-05-17T20:39:32.481Z,0.95
2023-05-17T20:42:01.248Z,0.98
2023-05-17T20:44:28.892Z,0.70
2023-05-17T20:46:56.840Z,1.13
2023-05-17T20:49:24.442Z,1.20
2023-05-17T20:51:52.080Z,0.85
2023-05-17T20:54:19.681Z,0.90
2023-05-17T20:56:47.816Z,1.75
2023-05-17T20:59:15.763Z,0.75
2023-05-17T21:01:43.700Z,1.42
2023-05-17T21:04:14.060Z,1.20
2023-05-17T21:06:42.167Z,0.95
2023-05-17T21:09:09.774Z,1.08
2023-05-17T21:11:38.429Z,1.50
2023-05-17T21:14:06.117Z,1.35
2023-05-17T21:16:35.390Z,0.88
2023-05-17T21:19:03.157Z,0.90
2023-05-17T21:21:30.791Z,0.88
2023-05-17T21:23:58.430Z,1.13
2023-05-17T21:28:55.729Z,0.95
2023-05-17T21:31:23.284Z,1.00
2023-05-17T21:33:51.674Z,0.80
2023-05-17T21:36:19.299Z,1.38
2023-05-17T21:38:46.925Z,1.17
2023-05-17T21:41:14.399Z,1.65
2023-05-17T21:43:41.943Z,1.00
2023-05-17T21:46:09.624Z,1.10
2023-05-17T21:48:37.216Z,1.00
2023-05-17T21:51:04.871Z,0.88
2023-05-17T21:53:32.430Z,0.80
2023-05-17T21:56:03.042Z,1.15
2023-05-17T21:58:31.872Z,1.15
2023-05-17T22:00:59.580Z,2.28
2023-05-17T22:03:27.216Z,1.20
2023-05-17T22:05:54.776Z,1.17
2023-05-17T22:08:22.385Z,1.08
2023-05-17T22:10:51.100Z,1.10
2023-05-17T22:13:19.165Z,1.02
2023-05-17T22:15:46.764Z,0.85
2023-05-17T22:18:14.427Z,1.02
2023-05-17T22:20:42.077Z,1.40
2023-05-17T22:23:09.723Z,1.42
2023-05-17T22:25:37.256Z,0.95
2023-05-17T22:28:04.925Z,1.08
2023-05-17T22:30:32.930Z,1.42
2023-05-17T22:33:01.177Z,1.42
2023-05-17T22:35:28.854Z,1.20
2023-05-17T22:37:56.366Z,0.93
2023-05-17T22:40:23.961Z,2.03
2023-05-17T22:42:51.940Z,1.50
2023-05-17T22:45:19.568Z,1.00
2023-05-17T22:47:47.583Z,0.77
2023-05-17T22:50:15.743Z,2.05
2023-05-17T22:52:46.149Z,1.20
2023-05-17T22:55:13.719Z,1.42
2023-05-17T22:57:41.589Z,1.27
2023-05-17T23:00:11.261Z,1.88
2023-05-17T23:02:40.770Z,1.60
2023-05-17T23:05:08.681Z,0.90
2023-05-17T23:07:38.251Z,1.10
2023-05-17T23:10:10.314Z,0.98
2023-05-17T23:12:38.643Z,1.80
2023-05-17T23:15:07.919Z,1.50
2023-05-17T23:17:36.431Z,1.00
2023-05-17T23:20:09.796Z,0.90
2023-05-17T23:22:38.921Z,1.15
2023-05-17T23:25:07.567Z,1.30
2023-05-17T23:27:36.308Z,1.40
2023-05-17T23:30:04.504Z,1.50
2023-05-17T23:32:33.987Z,1.30
2023-05-17T23:35:04.073Z,1.20
2023-05-17T23:37:35.503Z,1.60
2023-05-17T23:40:05.474Z,1.00
2023-05-17T23:42:33.048Z,2.13
2023-05-17T23:45:00.778Z,1.38
2023-05-17T23:47:29.009Z,1.23
2023-05-17T23:49:56.753Z,1.77
2023-05-17T23:52:24.433Z,1.38
2023-05-17T23:54:52.150Z,1.35
2023-05-17T23:57:19.716Z,1.55
2023-05-17T23:59:47.311Z,1.60
